Time;durP1;ratioP1;P1;durP2;ratioP2;P2;SDS_P1;SDS_P2;PMS_P1;PMS_P2;Temp;Humidity;BMP_temperature;BMP_pressure;BME280_temperature;BME280_humidity;BME280_pressure;Samples;Min_cycle;Max_cycle;Signal;HPM_P1;HPM_P2
2021/09/01 00:00:27;;;;;;;1.43;1.33;;;12.70;99.90;;;;;;4977009;28;20441;-78
2021/09/01 00:02:54;;;;;;;2.03;0.87;;;12.70;99.90;;;;;;4977085;28;20476;-78
2021/09/01 00:05:21;;;;;;;0.70;0.70;;;12.70;99.90;;;;;;4976890;28;20894;-78
2021/09/01 00:07:48;;;;;;;1.40;1.20;;;12.60;99.90;;;;;;4977145;28;20453;-78
2021/09/01 00:10:15;;;;;;;1.30;1.20;;;12.60;99.90;;;;;;4977072;28;20449;-78
2021/09/01 00:12:43;;;;;;;0.87;0.73;;;12.60;99.90;;;;;;4977212;28;20457;-78
2021/09/01 00:15:12;;;;;;;2.73;0.97;;;12.60;99.90;;;;;;4976694;28;20457;-78
2021/09/01 00:17:40;;;;;;;1.63;0.83;;;12.60;99.90;;;;;;4976755;28;20993;-87
2021/09/01 00:20:10;;;;;;;3.40;1.57;;;12.60;99.90;;;;;;4977445;28;20979;-86
2021/09/01 00:22:37;;;;;;;0.80;0.70;;;12.60;99.90;;;;;;4977522;28;20425;-87
2021/09/01 00:25:05;;;;;;;1.47;0.70;;;12.60;99.90;;;;;;4977087;28;20496;-87
2021/09/01 00:27:32;;;;;;;2.40;1.67;;;12.60;99.90;;;;;;4977201;28;20812;-86
2021/09/01 00:29:59;;;;;;;1.83;1.27;;;12.50;99.90;;;;;;4977427;28;20814;-87
2021/09/01 00:32:26;;;;;;;0.77;0.73;;;12.50;99.90;;;;;;4976700;28;20952;-86
2021/09/01 00:34:54;;;;;;;1.73;0.90;;;12.50;99.90;;;;;;4977261;28;20445;-87
2021/09/01 00:37:21;;;;;;;1.70;0.90;;;12.50;99.90;;;;;;4976884;28;20440;-86
2021/09/01 00:39:47;;;;;;;2.10;1.00;;;12.50;99.90;;;;;;4977171;28;20430;-86
2021/09/01 00:42:14;;;;;;;2.73;1.37;;;12.50;99.90;;;;;;4977063;28;20453;-87
2021/09/01 00:44:41;;;;;;;1.63;0.80;;;12.50;99.90;;;;;;4977030;28;20491;-86
2021/09/01 00:47:08;;;;;;;2.50;1.33;;;12.40;99.90;;;;;;4977386;28;20793;-86
2021/09/01 00:49:36;;;;;;;4.67;1.10;;;12.40;99.90;;;;;;4976919;28;20465;-86
2021/09/01 00:52:04;;;;;;;1.20;0.80;;;12.40;99.90;;;;;;4976868;28;20445;-86
2021/09/01 00:54:32;;;;;;;2.60;1.50;;;12.40;99.90;;;;;;4976900;28;20492;-86
2021/09/01 00:57:01;;;;;;;0.87;0.80;;;12.30;99.90;;;;;;4976614;28;20434;-86
2021/09/01 00:59:29;;;;;;;2.40;1.87;;;12.40;99.90;;;;;;4976676;28;20457;-86
2021/09/01 01:01:57;;;;;;;1.40;1.30;;;12.40;99.90;;;;;;4976858;28;20460;-86
2021/09/01 01:04:25;;;;;;;1.30;1.20;;;12.30;99.90;;;;;;4976299;28;20486;-86
2021/09/01 01:06:53;;;;;;;4.10;1.20;;;12.30;99.90;;;;;;4976766;28;20449;-86
2021/09/01 01:09:21;;;;;;;0.53;0.53;;;12.30;99.90;;;;;;4976435;28;20988;-86
2021/09/01 01:12:06;;;;;;;1.83;0.90;;;12.30;99.90;;;;;;4976556;28;20464;-86
2021/09/01 01:14:35;;;;;;;1.17;1.17;;;12.30;99.90;;;;;;4976474;28;20473;-86
2021/09/01 01:17:04;;;;;;;3.47;0.77;;;12.20;99.90;;;;;;4976200;28;20480;-86
2021/09/01 01:19:30;;;;;;;1.23;0.73;;;12.30;99.90;;;;;;4976354;28;20453;-86
2021/09/01 01:21:58;;;;;;;3.07;1.10;;;12.20;99.90;;;;;;4976586;28;20457;-86
2021/09/01 01:24:46;;;;;;;1.00;0.77;;;12.20;99.90;;;;;;4976451;28;20523;-86
2021/09/01 01:27:23;;;;;;;3.53;1.47;;;12.10;99.90;;;;;;4976373;28;20438;-86
2021/09/01 01:29:51;;;;;;;1.10;0.60;;;12.10;99.90;;;;;;4976327;28;20437;-86
2021/09/01 01:32:18;;;;;;;0.60;0.60;;;12.10;99.90;;;;;;4976178;28;20461;-86
2021/09/01 01:34:44;;;;;;;1.80;0.60;;;12.00;99.90;;;;;;4976035;28;20477;-86
2021/09/01 01:37:11;;;;;;;1.50;1.10;;;12.00;99.90;;;;;;4975878;28;20438;-86
2021/09/01 01:39:38;;;;;;;3.40;1.23;;;12.10;99.90;;;;;;4976122;28;20457;-86
2021/09/01 01:42:05;;;;;;;3.70;1.40;;;12.00;99.90;;;;;;4975963;28;20453;-86
2021/09/01 01:44:33;;;;;;;3.10;1.13;;;12.00;99.90;;;;;;4975188;28;20485;-86
2021/09/01 01:47:01;;;;;;;2.30;1.13;;;12.00;99.90;;;;;;4976148;28;20456;-86
2021/09/01 01:49:28;;;;;;;5.73;1.50;;;12.00;99.90;;;;;;4975643;28;20463;-86
2021/09/01 01:51:55;;;;;;;1.33;0.60;;;12.00;99.90;;;;;;4975650;28;20945;-86
2021/09/01 01:54:21;;;;;;;1.43;0.97;;;12.10;99.90;;;;;;4975741;28;20469;-86
2021/09/01 01:56:48;;;;;;;2.30;1.00;;;12.10;99.90;;;;;;4975660;28;20433;-86
2021/09/01 01:59:15;;;;;;;4.50;1.40;;;12.10;99.90;;;;;;4975430;28;20469;-81
2021/09/01 02:01:43;;;;;;;2.10;1.13;;;12.10;99.90;;;;;;4974829;28;20936;-81
2021/09/01 02:04:10;;;;;;;6.63;1.77;;;12.10;99.90;;;;;;4975183;28;20481;-81
2021/09/01 02:06:36;;;;;;;5.00;1.57;;;12.10;99.90;;;;;;4974765;28;20445;-81
2021/09/01 02:09:03;;;;;;;2.33;0.90;;;12.10;99.90;;;;;;4974667;28;20967;-81
2021/09/01 02:11:30;;;;;;;3.03;1.57;;;12.10;99.90;;;;;;4974650;28;20832;-81
2021/09/01 02:13:57;;;;;;;2.00;1.90;;;12.10;99.90;;;;;;4974832;28;20472;-80
2021/09/01 02:16:23;;;;;;;1.17;1.00;;;12.10;99.90;;;;;;4974589;28;21039;-81
2021/09/01 02:18:51;;;;;;;5.30;1.73;;;12.10;99.90;;;;;;4974851;28;20456;-81
2021/09/01 02:21:18;;;;;;;1.43;1.33;;;12.10;99.90;;;;;;4974789;28;20452;-81
2021/09/01 02:23:45;;;;;;;1.57;1.00;;;12.10;99.90;;;;;;4974309;28;20482;-81
2021/09/01 02:26:12;;;;;;;4.67;1.00;;;12.10;99.90;;;;;;4974721;28;20453;-81
2021/09/01 02:28:38;;;;;;;2.10;0.70;;;12.00;99.90;;;;;;4974675;28;20461;-81
2021/09/01 02:31:05;;;;;;;1.57;1.30;;;12.00;99.90;;;;;;4974669;28;20450;-81
2021/09/01 02:33:32;;;;;;;4.63;1.43;;;12.00;99.90;;;;;;4974502;28;20461;-81
2021/09/01 02:36:00;;;;;;;1.37;1.10;;;12.00;99.90;;;;;;4974604;28;20453;-81
2021/09/01 02:38:27;;;;;;;2.63;1.47;;;12.00;99.90;;;;;;4974598;28;20449;-81
2021/09/01 02:40:53;;;;;;;3.23;1.07;;;12.00;99.90;;;;;;4974385;28;20957;-81
2021/09/01 02:43:20;;;;;;;2.97;1.00;;;12.00;99.90;;;;;;4974468;28;20469;-81
2021/09/01 02:45:47;;;;;;;0.60;0.60;;;12.00;99.90;;;;;;4974141;28;21063;-81
2021/09/01 02:48:15;;;;;;;0.50;0.40;;;11.90;99.90;;;;;;4974161;28;20833;-81
2021/09/01 02:50:42;;;;;;;1.43;0.90;;;11.90;99.90;;;;;;4974426;28;20491;-81
2021/09/01 02:53:10;;;;;;;1.80;1.03;;;12.00;99.90;;;;;;4974431;28;20469;-81
2021/09/01 02:55:37;;;;;;;3.50;1.20;;;11.90;99.90;;;;;;4975841;28;20446;-81
2021/09/01 02:58:04;;;;;;;0.90;0.90;;;11.90;99.90;;;;;;4978423;28;20789;-81
2021/09/01 03:00:31;;;;;;;1.47;1.27;;;11.90;99.90;;;;;;4978162;28;20437;-81
2021/09/01 03:02:58;;;;;;;2.57;1.00;;;11.80;99.90;;;;;;4977997;28;20481;-81
2021/09/01 03:05:25;;;;;;;5.17;1.33;;;11.80;99.90;;;;;;4978198;28;20510;-81
2021/09/01 03:07:51;;;;;;;2.07;1.67;;;11.80;99.90;;;;;;4977967;28;20455;-81
2021/09/01 03:10:20;;;;;;;2.67;1.33;;;11.80;99.90;;;;;;4978151;28;20480;-80
2021/09/01 03:12:47;;;;;;;1.60;1.03;;;11.80;99.90;;;;;;4978061;28;20532;-80
2021/09/01 03:15:14;;;;;;;1.40;1.30;;;11.80;99.90;;;;;;4977871;28;20457;-80
2021/09/01 03:17:41;;;;;;;1.57;0.90;;;11.70;99.90;;;;;;4977823;28;20489;-80
2021/09/01 03:20:09;;;;;;;0.97;0.80;;;11.70;99.90;;;;;;4977961;28;20457;-80
2021/09/01 03:22:36;;;;;;;3.63;2.00;;;11.70;99.90;;;;;;4977643;28;20453;-80
2021/09/01 03:25:03;;;;;;;2.00;1.03;;;11.70;99.90;;;;;;4977838;28;20489;-79
2021/09/01 03:27:31;;;;;;;3.70;1.33;;;11.70;99.90;;;;;;4977585;28;20976;-79
2021/09/01 03:29:58;;;;;;;2.70;0.90;;;11.70;99.90;;;;;;4977824;28;20449;-79
2021/09/01 03:32:24;;;;;;;6.43;0.97;;;11.70;99.90;;;;;;4977803;28;20449;-80
2021/09/01 03:34:51;;;;;;;2.10;0.93;;;11.70;99.90;;;;;;4978490;28;20465;-79
2021/09/01 03:37:18;;;;;;;1.53;0.90;;;11.60;99.90;;;;;;4977696;28;20449;-80
2021/09/01 03:39:45;;;;;;;2.67;1.63;;;11.70;99.90;;;;;;4977431;28;20952;-80
2021/09/01 03:42:11;;;;;;;3.23;1.03;;;11.60;99.90;;;;;;4977638;28;20453;-80
2021/09/01 03:44:40;;;;;;;1.33;0.90;;;11.60;99.90;;;;;;4977428;28;20496;-80
2021/09/01 03:47:06;;;;;;;4.90;1.80;;;11.60;99.90;;;;;;4977527;28;20457;-80
2021/09/01 03:49:33;;;;;;;4.40;1.03;;;11.60;99.90;;;;;;4977542;28;20450;-80
2021/09/01 03:52:00;;;;;;;1.37;0.87;;;11.50;99.90;;;;;;4977775;28;20445;-80
2021/09/01 03:54:27;;;;;;;3.27;3.07;;;11.50;99.90;;;;;;4977471;28;20468;-81
2021/09/01 03:56:53;;;;;;;2.77;1.67;;;11.50;99.90;;;;;;4977096;28;20452;-81
2021/09/01 03:59:20;;;;;;;1.43;1.37;;;11.50;99.90;;;;;;4977631;28;20433;-81
2021/09/01 04:01:49;;;;;;;1.87;1.10;;;11.50;99.90;;;;;;4977282;28;20456;-81
2021/09/01 04:04:16;;;;;;;6.60;1.37;;;11.50;99.90;;;;;;4976854;28;20834;-80
2021/09/01 04:06:43;;;;;;;1.37;1.30;;;11.60;99.90;;;;;;4976842;28;20484;-81
2021/09/01 04:09:10;;;;;;;1.03;0.90;;;11.60;99.90;;;;;;4976829;28;20448;-81
2021/09/01 04:11:37;;;;;;;3.80;2.30;;;11.60;99.90;;;;;;4976808;28;20446;-81
2021/09/01 04:14:04;;;;;;;7.20;1.23;;;11.50;99.90;;;;;;4976964;28;20465;-81
2021/09/01 04:16:31;;;;;;;2.33;1.03;;;11.50;99.90;;;;;;4976817;28;20485;-85
2021/09/01 04:18:59;;;;;;;1.63;0.63;;;11.40;99.90;;;;;;4976901;28;20453;-84
2021/09/01 04:21:26;;;;;;;7.30;0.90;;;11.40;99.90;;;;;;4977143;28;20464;-84
2021/09/01 04:23:53;;;;;;;0.80;0.77;;;11.40;99.90;;;;;;4976978;28;20842;-85
2021/09/01 04:26:20;;;;;;;2.00;1.83;;;11.40;99.90;;;;;;4976920;28;20504;-84
2021/09/01 04:28:46;;;;;;;2.17;1.20;;;11.40;99.90;;;;;;4977262;28;20445;-85
2021/09/01 04:31:13;;;;;;;1.00;0.50;;;11.40;99.90;;;;;;4976627;28;20449;-84
2021/09/01 04:33:40;;;;;;;1.90;0.87;;;11.40;99.90;;;;;;4976890;28;20504;-84
2021/09/01 04:36:08;;;;;;;1.93;0.83;;;11.40;99.90;;;;;;4976908;28;20449;-85
2021/09/01 04:38:35;;;;;;;2.13;0.87;;;11.40;99.90;;;;;;4976681;28;20461;-85
2021/09/01 04:41:02;;;;;;;1.20;1.20;;;11.40;99.90;;;;;;4976709;28;20458;-84
2021/09/01 04:43:28;;;;;;;3.03;0.73;;;11.40;99.90;;;;;;4976631;28;20473;-80
2021/09/01 04:45:55;;;;;;;1.83;1.70;;;11.30;99.90;;;;;;4976389;28;20492;-80
2021/09/01 04:48:24;;;;;;;2.07;1.00;;;11.30;99.90;;;;;;4976429;28;20453;-80
2021/09/01 04:50:51;;;;;;;2.40;1.10;;;11.30;99.90;;;;;;4976612;28;20461;-79
2021/09/01 04:53:20;;;;;;;3.30;1.07;;;11.30;99.90;;;;;;4976496;28;20476;-80
2021/09/01 04:55:46;;;;;;;4.53;1.03;;;11.30;99.90;;;;;;4976286;28;20454;-80
2021/09/01 04:58:14;;;;;;;1.83;1.73;;;11.30;99.90;;;;;;4976241;28;20457;-79
2021/09/01 05:00:41;;;;;;;1.43;0.67;;;11.30;99.90;;;;;;4975927;28;20496;-79
2021/09/01 05:03:08;;;;;;;6.50;1.13;;;11.20;99.90;;;;;;4975761;28;20973;-79
2021/09/01 05:05:35;;;;;;;1.70;1.20;;;11.20;99.90;;;;;;4975726;28;20473;-80
2021/09/01 05:08:01;;;;;;;2.90;1.00;;;11.20;99.90;;;;;;4976023;28;20453;-80
2021/09/01 05:10:31;;;;;;;1.90;0.50;;;11.20;99.90;;;;;;4976209;28;20449;-80
2021/09/01 05:12:58;;;;;;;3.10;1.30;;;11.30;99.90;;;;;;4975907;28;20887;-79
2021/09/01 05:15:24;;;;;;;1.40;0.97;;;11.30;99.90;;;;;;4975702;28;20453;-80
2021/09/01 05:17:51;;;;;;;1.97;0.80;;;11.40;99.90;;;;;;4974680;28;20438;-80
2021/09/01 05:20:18;;;;;;;1.03;0.93;;;11.40;99.90;;;;;;4975795;28;20465;-80
2021/09/01 05:22:47;;;;;;;1.63;0.70;;;11.40;99.90;;;;;;4975244;28;20830;-80
2021/09/01 05:25:16;;;;;;;2.03;1.20;;;11.40;99.90;;;;;;4975583;28;20497;-80
2021/09/01 05:27:49;;;;;;;3.33;1.07;;;11.50;99.90;;;;;;4975651;28;20868;-80
2021/09/01 05:30:17;;;;;;;2.40;1.17;;;11.50;99.90;;;;;;4975369;28;20440;-80
2021/09/01 05:32:48;;;;;;;3.70;1.27;;;11.60;99.90;;;;;;4975450;28;20984;-84
2021/09/01 05:35:15;;;;;;;4.43;1.30;;;11.60;99.90;;;;;;4975694;28;20473;-84
2021/09/01 05:37:43;;;;;;;0.80;0.80;;;11.60;99.90;;;;;;4976100;28;20553;-84
2021/09/01 05:40:11;;;;;;;1.10;0.60;;;11.60;99.90;;;;;;4975203;28;20472;-84
2021/09/01 05:42:39;;;;;;;1.57;1.30;;;11.60;99.90;;;;;;4975034;28;20454;-84
2021/09/01 05:45:09;;;;;;;1.43;1.07;;;11.60;99.90;;;;;;4975353;28;20485;-84
2021/09/01 05:47:36;;;;;;;1.97;0.87;;;11.60;99.90;;;;;;4975501;28;20449;-84
2021/09/01 05:50:04;;;;;;;0.60;0.60;;;11.70;99.90;;;;;;4975447;28;20476;-84
2021/09/01 05:52:31;;;;;;;1.27;0.93;;;11.70;99.90;;;;;;4974978;28;20464;-84
2021/09/01 05:55:02;;;;;;;1.97;1.20;;;11.70;99.90;;;;;;4975370;28;20474;-84
2021/09/01 05:57:35;;;;;;;1.00;0.90;;;11.80;99.90;;;;;;4975461;28;20446;-84
2021/09/01 06:00:07;;;;;;;1.87;0.60;;;11.80;99.90;;;;;;4975327;28;20438;-84
2021/09/01 06:02:40;;;;;;;1.60;0.97;;;11.80;99.90;;;;;;4975311;28;20442;-84
2021/09/01 06:05:08;;;;;;;1.63;0.80;;;11.90;99.90;;;;;;4975118;28;20820;-79
2021/09/01 06:07:36;;;;;;;2.80;1.37;;;11.90;99.90;;;;;;4974976;28;20453;-78
2021/09/01 06:10:04;;;;;;;0.80;0.80;;;11.90;99.90;;;;;;4974972;28;20453;-78
2021/09/01 06:12:31;;;;;;;0.50;0.50;;;11.90;99.90;;;;;;4974980;28;20454;-78
2021/09/01 06:14:58;;;;;;;0.50;0.50;;;11.90;99.90;;;;;;4974605;28;20442;-78
2021/09/01 06:17:25;;;;;;;3.13;1.07;;;12.00;99.90;;;;;;4974580;28;20481;-78
2021/09/01 06:19:53;;;;;;;0.97;0.70;;;12.00;99.90;;;;;;4974446;28;20933;-78
2021/09/01 06:22:20;;;;;;;2.80;0.80;;;12.00;99.90;;;;;;4974504;28;20438;-78
2021/09/01 06:24:46;;;;;;;0.93;0.50;;;12.10;99.90;;;;;;4974599;28;20481;-78
2021/09/01 06:27:13;;;;;;;1.43;1.33;;;12.30;99.90;;;;;;4974707;28;20449;-78
2021/09/01 06:29:40;;;;;;;1.13;0.80;;;12.40;99.90;;;;;;4974486;28;20448;-79
2021/09/01 06:32:07;;;;;;;2.37;1.37;;;12.50;99.90;;;;;;4974358;28;20441;-78
2021/09/01 06:34:34;;;;;;;1.57;0.90;;;12.70;99.90;;;;;;4974555;28;20477;-78
2021/09/01 06:37:03;;;;;;;1.83;0.60;;;12.80;99.90;;;;;;4974611;28;20453;-79
2021/09/01 06:39:29;;;;;;;1.47;0.87;;;12.90;99.90;;;;;;4974240;28;20456;-78
2021/09/01 06:41:56;;;;;;;1.27;1.10;;;13.10;99.90;;;;;;4974353;28;20440;-79
2021/09/01 06:44:23;;;;;;;2.43;1.60;;;13.20;99.90;;;;;;4974114;28;20844;-79
2021/09/01 06:46:49;;;;;;;2.27;1.83;;;13.30;99.90;;;;;;4974651;28;20485;-79
2021/09/01 06:49:16;;;;;;;1.30;1.17;;;13.40;99.90;;;;;;4974508;28;20457;-79
2021/09/01 06:51:43;;;;;;;0.93;0.87;;;13.50;99.90;;;;;;4974461;28;20451;-79
2021/09/01 06:54:11;;;;;;;3.90;1.87;;;13.60;99.90;;;;;;4974393;28;20465;-80
2021/09/01 06:56:38;;;;;;;3.00;1.60;;;13.80;99.90;;;;;;4974175;28;20942;-80
2021/09/01 06:59:04;;;;;;;5.10;0.90;;;13.90;99.90;;;;;;4974136;28;20958;-80
2021/09/01 07:01:31;;;;;;;2.63;1.57;;;13.90;99.90;;;;;;4974050;28;20453;-80
2021/09/01 07:03:58;;;;;;;4.07;0.97;;;14.00;99.90;;;;;;4974614;28;20822;-82
2021/09/01 07:06:25;;;;;;;1.87;1.27;;;14.10;99.90;;;;;;4974048;28;20476;-80
2021/09/01 07:08:52;;;;;;;1.73;1.30;;;14.20;99.90;;;;;;4974377;28;20429;-80
2021/09/01 07:11:20;;;;;;;1.73;0.83;;;14.30;99.90;;;;;;4974582;28;20450;-80
2021/09/01 07:13:48;;;;;;;1.50;1.10;;;14.40;99.90;;;;;;4973904;28;20481;-80
2021/09/01 07:16:14;;;;;;;1.93;1.30;;;14.60;99.90;;;;;;4974057;28;20513;-81
2021/09/01 07:18:41;;;;;;;2.20;1.17;;;14.70;99.90;;;;;;4974214;28;20464;-81
2021/09/01 07:21:08;;;;;;;1.67;1.33;;;14.80;99.90;;;;;;4974492;28;20440;-80
2021/09/01 07:23:35;;;;;;;2.67;2.00;;;15.00;99.90;;;;;;4973882;28;21020;-81
2021/09/01 07:26:02;;;;;;;4.57;1.77;;;15.20;99.90;;;;;;4974120;28;20496;-81
2021/09/01 07:28:30;;;;;;;2.77;1.40;;;15.30;99.90;;;;;;4974247;28;20441;-81
2021/09/01 07:30:58;;;;;;;3.13;1.30;;;15.50;99.90;;;;;;4973853;28;21009;-81
2021/09/01 07:33:24;;;;;;;1.17;1.00;;;15.50;99.90;;;;;;4973775;28;20468;-81
2021/09/01 07:35:51;;;;;;;3.70;1.40;;;15.70;99.90;;;;;;4974068;28;20782;-81
2021/09/01 07:38:18;;;;;;;3.63;1.43;;;15.70;99.90;;;;;;4973756;28;20460;-81
2021/09/01 07:40:45;;;;;;;1.30;1.20;;;15.80;99.90;;;;;;4973854;28;20460;-81
2021/09/01 07:43:12;;;;;;;2.90;1.70;;;15.90;99.90;;;;;;4977712;28;20496;-81
2021/09/01 07:45:42;;;;;;;2.70;1.40;;;16.20;99.90;;;;;;4977212;28;20477;-82
2021/09/01 07:48:13;;;;;;;4.57;1.53;;;16.30;99.90;;;;;;4977650;28;20438;-82
2021/09/01 07:50:40;;;;;;;3.03;1.60;;;16.40;99.90;;;;;;4977242;28;20461;-81
2021/09/01 07:53:07;;;;;;;4.83;2.03;;;16.50;99.90;;;;;;4977431;28;20472;-82
2021/09/01 07:55:34;;;;;;;1.87;1.10;;;16.60;99.90;;;;;;4977182;28;20445;-82
2021/09/01 07:58:01;;;;;;;1.40;1.33;;;16.60;99.90;;;;;;4977372;28;20460;-82
2021/09/01 08:00:27;;;;;;;3.53;1.57;;;16.80;99.90;;;;;;4977327;28;20465;-82
2021/09/01 08:02:56;;;;;;;4.17;1.67;;;16.90;99.90;;;;;;4976919;28;20469;-82
2021/09/01 08:05:23;;;;;;;2.77;1.60;;;17.00;99.90;;;;;;4977287;28;20850;-82
2021/09/01 08:07:49;;;;;;;2.10;1.37;;;17.10;99.90;;;;;;4977264;28;20449;-82
2021/09/01 08:10:16;;;;;;;3.57;1.90;;;17.20;99.90;;;;;;4977080;28;20449;-82
2021/09/01 08:12:44;;;;;;;1.30;1.10;;;17.30;99.90;;;;;;4976968;28;20438;-82
2021/09/01 08:15:12;;;;;;;2.50;1.40;;;17.40;99.90;;;;;;4977246;28;20418;-82
2021/09/01 08:17:39;;;;;;;5.20;1.33;;;17.60;99.90;;;;;;4976657;28;20482;-82
2021/09/01 08:20:08;;;;;;;2.10;1.47;;;17.60;99.90;;;;;;4977252;28;20449;-82
2021/09/01 08:22:35;;;;;;;1.27;1.17;;;17.60;99.90;;;;;;4976853;28;20450;-82
2021/09/01 08:25:02;;;;;;;1.43;0.93;;;17.80;99.90;;;;;;4976842;28;20452;-82
2021/09/01 08:27:29;;;;;;;1.03;0.93;;;17.80;99.90;;;;;;4976469;28;20488;-82
2021/09/01 08:29:55;;;;;;;4.40;1.30;;;17.80;99.90;;;;;;4976547;28;20460;-80
2021/09/01 08:32:22;;;;;;;3.93;1.80;;;17.80;99.90;;;;;;4976432;28;20473;-82
2021/09/01 08:34:49;;;;;;;4.50;0.80;;;17.90;99.90;;;;;;4976630;28;20469;-79
2021/09/01 08:37:17;;;;;;;3.90;1.40;;;18.10;99.90;;;;;;4976661;28;20472;-81
2021/09/01 08:39:44;;;;;;;1.90;1.23;;;18.40;99.90;;;;;;4976607;28;20446;-82
2021/09/01 08:42:11;;;;;;;1.67;1.10;;;18.30;99.90;;;;;;4976349;28;20444;-82
2021/09/01 08:44:38;;;;;;;2.70;1.23;;;18.40;99.90;;;;;;4976453;28;20473;-81
2021/09/01 08:49:40;;;;;;;2.40;1.07;;;18.70;99.90;;;;;;5008181;23;20521;-81
2021/09/01 08:52:07;;;;;;;1.47;1.20;;;18.80;99.90;;;;;;4976329;28;20418;-81
2021/09/01 08:54:35;;;;;;;1.80;0.83;;;19.00;99.90;;;;;;4976137;28;20470;-81
2021/09/01 08:57:02;;;;;;;6.20;1.73;;;19.00;99.90;;;;;;4976070;28;20922;-81
2021/09/01 08:59:28;;;;;;;0.97;0.90;;;19.10;99.90;;;;;;4976001;28;20940;-81
2021/09/01 09:01:56;;;;;;;1.47;1.37;;;19.10;99.90;;;;;;4976265;28;20429;-81
2021/09/01 09:04:25;;;;;;;0.63;0.63;;;19.30;99.90;;;;;;4976101;28;20476;-80
2021/09/01 09:06:53;;;;;;;1.20;1.00;;;19.40;99.90;;;;;;4975765;28;21005;-81
2021/09/01 09:09:21;;;;;;;1.93;1.23;;;19.80;99.90;;;;;;4976154;28;20894;-82
2021/09/01 09:11:50;;;;;;;2.10;1.10;;;19.90;99.90;;;;;;4976251;28;20437;-81
2021/09/01 09:14:22;;;;;;;0.97;0.87;;;20.00;99.90;;;;;;4975594;28;20501;-81
2021/09/01 09:17:05;;;;;;;2.40;0.97;;;20.00;99.90;;;;;;4975802;28;20427;-79
2021/09/01 09:19:43;;;;;;;1.23;0.77;;;20.10;99.90;;;;;;4975706;28;20429;-83
2021/09/01 09:22:10;;;;;;;2.23;1.13;;;20.50;99.90;;;;;;4975949;28;20503;-83
2021/09/01 09:24:37;;;;;;;1.20;1.10;;;20.70;99.90;;;;;;4975554;28;20457;-83
2021/09/01 09:27:06;;;;;;;1.37;0.80;;;20.70;99.90;;;;;;4975407;28;20894;-86
2021/09/01 09:29:33;;;;;;;3.73;1.47;;;20.90;99.90;;;;;;4975835;28;20509;-83
2021/09/01 09:32:03;;;;;;;3.73;1.37;;;21.00;99.90;;;;;;4975938;28;20433;-84
2021/09/01 09:34:36;;;;;;;1.17;1.07;;;20.90;99.90;;;;;;4975733;28;21018;-83
2021/09/01 09:37:05;;;;;;;2.00;1.10;;;20.80;99.90;;;;;;4975936;28;20421;-82
2021/09/01 09:39:39;;;;;;;1.63;0.87;;;21.00;99.90;;;;;;4975337;28;20433;-85
2021/09/01 09:42:08;;;;;;;2.40;0.90;;;21.20;99.90;;;;;;4975161;28;20427;-87
2021/09/01 09:44:35;;;;;;;2.00;1.23;;;21.20;99.90;;;;;;4975415;28;20472;-83
2021/09/01 09:47:01;;;;;;;1.10;1.03;;;21.20;99.90;;;;;;4975582;28;20473;-87
2021/09/01 09:49:29;;;;;;;1.10;1.00;;;21.60;99.90;;;;;;4975190;28;20483;-85
2021/09/01 09:51:57;;;;;;;0.83;0.60;;;21.70;99.90;;;;;;4975428;28;20436;-82
2021/09/01 09:54:26;;;;;;;2.67;1.00;;;21.70;99.90;;;;;;4974934;28;20460;-82
2021/09/01 09:57:06;;;;;;;2.33;0.90;;;21.60;99.90;;;;;;4975024;28;20890;-81
2021/09/01 09:59:35;;;;;;;1.47;1.00;;;21.50;99.90;;;;;;4974994;28;20998;-82
2021/09/01 10:02:02;;;;;;;1.33;0.90;;;21.40;99.90;;;;;;4975117;28;20437;-84
2021/09/01 10:04:30;;;;;;;2.50;0.80;;;21.50;99.90;;;;;;4974969;28;20553;-84
2021/09/01 10:06:57;;;;;;;0.60;0.50;;;21.50;99.90;;;;;;4975900;28;20464;-89
2021/09/01 10:09:24;;;;;;;1.83;1.10;;;21.60;99.90;;;;;;4975137;28;20909;-82
2021/09/01 10:11:52;;;;;;;0.90;0.63;;;21.80;99.90;;;;;;4975007;28;20473;-85
2021/09/01 10:14:21;;;;;;;1.10;0.80;;;21.80;99.90;;;;;;4975168;28;20461;-84
2021/09/01 10:16:56;;;;;;;1.37;1.20;;;21.70;99.90;;;;;;4975126;28;20439;-82
2021/09/01 10:19:27;;;;;;;0.90;0.70;;;21.50;99.90;;;;;;4974984;28;20444;-83
2021/09/01 10:21:57;;;;;;;0.80;0.80;;;21.40;99.90;;;;;;4974614;28;20845;-85
2021/09/01 10:24:29;;;;;;;1.17;1.00;;;21.50;99.90;;;;;;4974792;28;20476;-82
2021/09/01 10:27:02;;;;;;;0.60;0.50;;;21.50;99.90;;;;;;4974454;28;21007;-82
2021/09/01 10:29:53;;;;;;;1.70;0.80;;;21.30;99.90;;;;;;4974950;28;20438;-82
2021/09/01 10:32:27;;;;;;;2.07;1.00;;;21.30;99.90;;;;;;4974843;28;20500;-84
2021/09/01 10:35:27;;;;;;;1.40;0.80;;;21.20;99.90;;;;;;4974802;28;20437;-84
2021/09/01 10:37:54;;;;;;;0.80;0.80;;;21.20;99.90;;;;;;4960446;28;20532;-87
2021/09/01 10:40:53;;;;;;;1.00;0.67;;;21.20;99.90;;;;;;4974666;28;20437;-82
2021/09/01 10:43:20;;;;;;;0.70;0.70;;;21.10;99.90;;;;;;4974591;28;20480;-81
2021/09/01 10:45:56;;;;;;;3.13;0.80;;;21.20;99.90;;;;;;4974648;28;20437;-84
2021/09/01 10:48:24;;;;;;;1.50;0.87;;;21.30;99.90;;;;;;4974257;28;20535;-81
2021/09/01 10:50:52;;;;;;;1.70;0.90;;;21.50;99.90;;;;;;4974251;28;20453;-82
2021/09/01 10:53:22;;;;;;;1.40;0.90;;;21.60;99.90;;;;;;4974528;28;20473;-84
2021/09/01 10:56:06;;;;;;;1.00;0.60;;;21.60;99.90;;;;;;4974243;28;20910;-82
2021/09/01 10:58:37;;;;;;;1.20;0.83;;;21.80;99.90;;;;;;4974622;28;20432;-82
2021/09/01 11:01:09;;;;;;;1.10;1.00;;;22.00;99.90;;;;;;4974239;28;20415;-82
2021/09/01 11:03:40;;;;;;;2.87;1.00;;;22.00;99.90;;;;;;4975032;28;20484;-81
2021/09/01 11:06:21;;;;;;;2.93;1.13;;;21.90;99.90;;;;;;4974423;28;20450;-81
2021/09/01 11:09:09;;;;;;;1.00;0.90;;;21.90;99.90;;;;;;4974471;28;20440;-82
2021/09/01 11:11:58;;;;;;;1.30;0.90;;;21.80;99.90;;;;;;4974449;28;20841;-82
2021/09/01 11:14:37;;;;;;;1.70;0.90;;;21.90;99.90;;;;;;4973971;28;21055;-81
2021/09/01 11:17:07;;;;;;;2.43;1.23;;;22.00;99.90;;;;;;4976546;28;20552;-82
2021/09/01 11:19:35;;;;;;;2.20;1.10;;;22.00;99.90;;;;;;4978178;28;20613;-82
2021/09/01 11:22:06;;;;;;;1.93;1.00;;;21.80;99.90;;;;;;4978125;28;20440;-81
2021/09/01 11:24:43;;;;;;;0.80;0.73;;;21.70;99.90;;;;;;4978032;28;20507;-81
2021/09/01 11:27:12;;;;;;;1.37;0.77;;;21.80;99.90;;;;;;4978142;28;20522;-81
2021/09/01 11:29:39;;;;;;;1.40;1.20;;;21.80;99.90;;;;;;4981310;28;20443;-82
2021/09/01 11:32:07;;;;;;;2.07;0.80;;;21.80;99.80;;;;;;4977730;28;20444;-84
2021/09/01 11:34:35;;;;;;;1.93;1.20;;;21.70;99.90;;;;;;4978051;28;20479;-82
2021/09/01 11:37:03;;;;;;;1.60;1.10;;;21.40;99.60;;;;;;4977895;28;20947;-82
2021/09/01 11:39:29;;;;;;;0.90;0.90;;;21.00;99.70;;;;;;4977554;28;20437;-85
2021/09/01 11:42:01;;;;;;;0.77;0.77;;;21.00;99.90;;;;;;4977786;28;20441;-83
2021/09/01 11:44:28;;;;;;;3.40;1.00;;;21.00;99.90;;;;;;4977875;28;20468;-82
2021/09/01 11:46:56;;;;;;;1.37;1.27;;;21.10;99.90;;;;;;4977603;28;20992;-86
2021/09/01 11:49:23;;;;;;;0.80;0.80;;;21.20;99.90;;;;;;4977740;28;20484;-82
2021/09/01 11:51:51;;;;;;;1.80;0.90;;;21.30;99.90;;;;;;4977676;28;20429;-84
2021/09/01 11:54:19;;;;;;;0.70;0.70;;;21.20;99.90;;;;;;4980858;28;20956;-83
2021/09/01 11:56:46;;;;;;;3.07;0.80;;;21.10;99.90;;;;;;4979255;28;20944;-83
2021/09/01 11:59:14;;;;;;;1.50;1.03;;;20.90;99.90;;;;;;4977717;28;20441;-84
2021/09/01 12:01:45;;;;;;;1.37;0.70;;;20.80;99.90;;;;;;4977288;28;20425;-82
2021/09/01 12:04:12;;;;;;;3.70;0.90;;;20.70;99.90;;;;;;4977113;28;20509;-82
2021/09/01 12:06:41;;;;;;;0.80;0.80;;;20.60;99.90;;;;;;4977228;28;20449;-82
2021/09/01 12:09:13;;;;;;;2.30;0.90;;;20.70;99.90;;;;;;4977432;28;20450;-83
2021/09/01 12:11:47;;;;;;;1.20;0.90;;;20.60;99.90;;;;;;4977248;28;20492;-81
2021/09/01 12:14:14;;;;;;;1.17;1.07;;;20.70;99.90;;;;;;4977176;28;20477;-83
2021/09/01 12:16:41;;;;;;;2.33;1.30;;;20.60;99.90;;;;;;4977122;28;20524;-82
2021/09/01 12:19:11;;;;;;;0.90;0.90;;;20.50;99.90;;;;;;4977071;28;20465;-85
2021/09/01 12:21:52;;;;;;;1.73;0.77;;;20.40;99.90;;;;;;4977178;28;20450;-81
2021/09/01 12:24:26;;;;;;;1.43;0.60;;;20.40;99.90;;;;;;4976919;28;20464;-81
2021/09/01 12:27:04;;;;;;;2.87;1.30;;;20.30;99.90;;;;;;4976254;28;20444;-85
2021/09/01 12:29:37;;;;;;;3.10;1.10;;;20.30;99.90;;;;;;4976604;28;20941;-82
2021/09/01 12:32:07;;;;;;;1.33;1.10;;;20.40;99.90;;;;;;4977224;28;20862;-83
2021/09/01 12:34:36;;;;;;;1.73;1.63;;;20.50;99.90;;;;;;4976771;28;20837;-82
2021/09/01 12:37:06;;;;;;;1.70;0.90;;;20.60;99.90;;;;;;4976723;28;20761;-84
2021/09/01 12:39:47;;;;;;;1.00;0.90;;;20.60;99.90;;;;;;4976744;28;20425;-83
2021/09/01 12:42:31;;;;;;;1.30;0.90;;;20.60;99.90;;;;;;4976837;28;20439;-82
2021/09/01 12:45:00;;;;;;;0.73;0.73;;;20.40;99.90;;;;;;4976623;28;20429;-81
2021/09/01 12:47:28;;;;;;;1.93;1.20;;;20.30;99.90;;;;;;4976331;28;20469;-84
2021/09/01 12:49:58;;;;;;;1.43;0.90;;;20.20;99.90;;;;;;4976596;28;20437;-81
2021/09/01 12:52:26;;;;;;;0.80;0.80;;;20.20;99.90;;;;;;4976182;28;20425;-82
2021/09/01 12:54:55;;;;;;;1.93;0.73;;;20.40;99.90;;;;;;4976069;28;20480;-82
2021/09/01 12:57:23;;;;;;;2.90;1.10;;;20.40;99.90;;;;;;4976397;28;20450;-82